sensor_id;sensor_type;location;lat;lon;timestamp;temperature;humidity
55083;DHT22;40978;52.850;6.506;2022-12-18T00:00:05;-3.20;99.90
55083;DHT22;40978;52.850;6.506;2022-12-18T00:02:31;-3.20;99.90
55083;DHT22;40978;52.850;6.506;2022-12-18T00:04:57;-3.30;99.90
55083;DHT22;40978;52.850;6.506;2022-12-18T00:07:23;-3.30;99.90
55083;DHT22;40978;52.850;6.506;2022-12-18T00:09:48;-3.20;99.90
55083;DHT22;40978;52.850;6.506;2022-12-18T00:12:14;-3.20;99.90
55083;DHT22;40978;52.850;6.506;2022-12-18T00:14:40;-3.30;99.90
55083;DHT22;40978;52.850;6.506;2022-12-18T00:17:05;-3.30;99.90
55083;DHT22;40978;52.850;6.506;2022-12-18T00:19:31;-3.30;99.90
55083;DHT22;40978;52.850;6.506;2022-12-18T00:21:57;-3.30;99.90
55083;DHT22;40978;52.850;6.506;2022-12-18T00:24:23;-3.40;99.90
55083;DHT22;40978;52.850;6.506;2022-12-18T00:26:49;-3.40;99.90
55083;DHT22;40978;52.850;6.506;2022-12-18T00:29:14;-3.40;99.90
55083;DHT22;40978;52.850;6.506;2022-12-18T00:31:41;-3.50;99.90
55083;DHT22;40978;52.850;6.506;2022-12-18T00:34:10;-3.50;99.90
55083;DHT22;40978;52.850;6.506;2022-12-18T00:36:37;-3.50;99.90
55083;DHT22;40978;52.850;6.506;2022-12-18T00:39:04;-3.50;99.90
55083;DHT22;40978;52.850;6.506;2022-12-18T00:41:30;-3.50;99.90
55083;DHT22;40978;52.850;6.506;2022-12-18T00:44:16;-3.60;99.90
55083;DHT22;40978;52.850;6.506;2022-12-18T00:46:43;-3.60;99.90
55083;DHT22;40978;52.850;6.506;2022-12-18T00:49:09;-3.60;99.90
55083;DHT22;40978;52.850;6.506;2022-12-18T00:51:35;-3.60;99.90
55083;DHT22;40978;52.850;6.506;2022-12-18T00:54:01;-3.60;99.90
55083;DHT22;40978;52.850;6.506;2022-12-18T00:56:26;-3.70;99.90
55083;DHT22;40978;52.850;6.506;2022-12-18T00:58:52;-3.70;99.90
55083;DHT22;40978;52.850;6.506;2022-12-18T01:01:18;-3.70;99.90
55083;DHT22;40978;52.850;6.506;2022-12-18T01:03:44;-3.70;99.90
55083;DHT22;40978;52.850;6.506;2022-12-18T01:06:13;-3.80;99.90
55083;DHT22;40978;52.850;6.506;2022-12-18T01:08:39;-3.80;99.90
55083;DHT22;40978;52.850;6.506;2022-12-18T01:11:16;-3.80;99.90
55083;DHT22;40978;52.850;6.506;2022-12-18T01:13:42;-3.80;99.90
55083;DHT22;40978;52.850;6.506;2022-12-18T01:16:08;-3.80;99.90
55083;DHT22;40978;52.850;6.506;2022-12-18T01:18:36;-3.90;99.90
55083;DHT22;40978;52.850;6.506;2022-12-18T01:21:08;-3.90;99.90
55083;DHT22;40978;52.850;6.506;2022-12-18T01:23:35;-3.90;99.90
55083;DHT22;40978;52.850;6.506;2022-12-18T01:26:05;-4.00;99.90
55083;DHT22;40978;52.850;6.506;2022-12-18T01:28:31;-4.00;99.90
55083;DHT22;40978;52.850;6.506;2022-12-18T01:30:57;-4.00;99.90
55083;DHT22;40978;52.850;6.506;2022-12-18T01:33:23;-4.00;99.90
55083;DHT22;40978;52.850;6.506;2022-12-18T01:35:49;-4.00;99.90
55083;DHT22;40978;52.850;6.506;2022-12-18T01:38:14;-4.00;99.90
55083;DHT22;40978;52.850;6.506;2022-12-18T01:40:40;-4.00;99.90
55083;DHT22;40978;52.850;6.506;2022-12-18T01:43:09;-4.10;99.90
55083;DHT22;40978;52.850;6.506;2022-12-18T01:45:34;-4.00;99.90
55083;DHT22;40978;52.850;6.506;2022-12-18T01:48:06;-4.10;99.90
55083;DHT22;40978;52.850;6.506;2022-12-18T01:50:33;-4.00;99.90
55083;DHT22;40978;52.850;6.506;2022-12-18T01:55:35;-4.00;99.90
55083;DHT22;40978;52.850;6.506;2022-12-18T01:58:02;-4.10;99.90
55083;DHT22;40978;52.850;6.506;2022-12-18T02:00:29;-4.10;99.90
55083;DHT22;40978;52.850;6.506;2022-12-18T02:02:55;-4.20;99.90
55083;DHT22;40978;52.850;6.506;2022-12-18T02:05:35;-4.20;99.90
55083;DHT22;40978;52.850;6.506;2022-12-18T02:08:54;-4.30;99.90
55083;DHT22;40978;52.850;6.506;2022-12-18T02:13:41;-4.40;99.90
55083;DHT22;40978;52.850;6.506;2022-12-18T02:16:19;-4.40;99.90
55083;DHT22;40978;52.850;6.506;2022-12-18T02:18:59;-4.50;99.90
55083;DHT22;40978;52.850;6.506;2022-12-18T02:21:58;-4.50;99.90
55083;DHT22;40978;52.850;6.506;2022-12-18T02:27:50;-4.60;99.90
55083;DHT22;40978;52.850;6.506;2022-12-18T02:30:18;-4.70;99.90
55083;DHT22;40978;52.850;6.506;2022-12-18T02:32:48;-4.70;99.90
55083;DHT22;40978;52.850;6.506;2022-12-18T02:35:23;-4.80;99.90
55083;DHT22;40978;52.850;6.506;2022-12-18T02:37:51;-4.80;99.90
55083;DHT22;40978;52.850;6.506;2022-12-18T02:40:17;-4.90;99.90
55083;DHT22;40978;52.850;6.506;2022-12-18T02:42:44;-4.80;99.90
55083;DHT22;40978;52.850;6.506;2022-12-18T02:45:10;-4.90;99.90
55083;DHT22;40978;52.850;6.506;2022-12-18T02:47:43;-5.00;99.90
55083;DHT22;40978;52.850;6.506;2022-12-18T02:50:22;-5.00;99.90
55083;DHT22;40978;52.850;6.506;2022-12-18T02:53:38;-5.00;99.90
55083;DHT22;40978;52.850;6.506;2022-12-18T03:04:04;-5.10;99.90
55083;DHT22;40978;52.850;6.506;2022-12-18T03:06:39;-5.20;99.90
55083;DHT22;40978;52.850;6.506;2022-12-18T03:09:14;-5.20;99.90
55083;DHT22;40978;52.850;6.506;2022-12-18T03:11:44;-5.20;99.90
55083;DHT22;40978;52.850;6.506;2022-12-18T03:14:32;-5.20;99.90
55083;DHT22;40978;52.850;6.506;2022-12-18T03:17:02;-5.20;99.90
55083;DHT22;40978;52.850;6.506;2022-12-18T03:19:32;-5.20;99.90
55083;DHT22;40978;52.850;6.506;2022-12-18T03:22:02;-5.20;99.90
55083;DHT22;40978;52.850;6.506;2022-12-18T03:24:31;-5.30;99.90
55083;DHT22;40978;52.850;6.506;2022-12-18T03:27:01;-5.30;99.90
55083;DHT22;40978;52.850;6.506;2022-12-18T03:29:50;-5.30;99.90
55083;DHT22;40978;52.850;6.506;2022-12-18T03:32:23;-5.40;99.90
55083;DHT22;40978;52.850;6.506;2022-12-18T03:34:51;-5.30;99.90
55083;DHT22;40978;52.850;6.506;2022-12-18T03:37:19;-5.40;99.90
55083;DHT22;40978;52.850;6.506;2022-12-18T03:39:44;-5.50;99.90
55083;DHT22;40978;52.850;6.506;2022-12-18T03:45:09;-5.50;99.90
55083;DHT22;40978;52.850;6.506;2022-12-18T03:48:03;-5.50;99.90
55083;DHT22;40978;52.850;6.506;2022-12-18T03:50:46;-5.50;99.90
55083;DHT22;40978;52.850;6.506;2022-12-18T03:55:49;-5.50;99.90
55083;DHT22;40978;52.850;6.506;2022-12-18T03:58:19;-5.60;99.90
55083;DHT22;40978;52.850;6.506;2022-12-18T04:00:48;-5.60;99.90
55083;DHT22;40978;52.850;6.506;2022-12-18T04:03:16;-5.60;99.90
55083;DHT22;40978;52.850;6.506;2022-12-18T04:05:44;-5.60;99.90
55083;DHT22;40978;52.850;6.506;2022-12-18T04:08:11;-5.70;99.90
55083;DHT22;40978;52.850;6.506;2022-12-18T04:10:37;-5.70;99.90
55083;DHT22;40978;52.850;6.506;2022-12-18T04:13:03;-5.70;99.90
55083;DHT22;40978;52.850;6.506;2022-12-18T04:15:29;-5.70;99.90
55083;DHT22;40978;52.850;6.506;2022-12-18T04:17:54;-5.80;99.90
55083;DHT22;40978;52.850;6.506;2022-12-18T04:20:20;-5.80;99.90
55083;DHT22;40978;52.850;6.506;2022-12-18T04:22:46;-5.80;99.90
55083;DHT22;40978;52.850;6.506;2022-12-18T04:25:12;-5.80;99.90
55083;DHT22;40978;52.850;6.506;2022-12-18T04:27:38;-5.80;99.90
55083;DHT22;40978;52.850;6.506;2022-12-18T04:30:04;-5.90;99.90
55083;DHT22;40978;52.850;6.506;2022-12-18T04:32:30;-5.90;99.90
55083;DHT22;40978;52.850;6.506;2022-12-18T04:34:56;-5.90;99.90
55083;DHT22;40978;52.850;6.506;2022-12-18T04:37:22;-6.00;99.90
55083;DHT22;40978;52.850;6.506;2022-12-18T04:39:47;-6.00;99.90
55083;DHT22;40978;52.850;6.506;2022-12-18T04:42:13;-6.00;99.90
55083;DHT22;40978;52.850;6.506;2022-12-18T04:44:39;-6.00;99.90
55083;DHT22;40978;52.850;6.506;2022-12-18T04:47:04;-6.00;99.90
55083;DHT22;40978;52.850;6.506;2022-12-18T04:49:30;-6.00;99.90
55083;DHT22;40978;52.850;6.506;2022-12-18T04:51:56;-6.10;99.90
55083;DHT22;40978;52.850;6.506;2022-12-18T04:54:21;-6.10;99.90
55083;DHT22;40978;52.850;6.506;2022-12-18T04:56:47;-6.10;99.90
55083;DHT22;40978;52.850;6.506;2022-12-18T04:59:13;-6.10;99.90
55083;DHT22;40978;52.850;6.506;2022-12-18T05:01:39;-6.10;99.90
55083;DHT22;40978;52.850;6.506;2022-12-18T05:04:04;-6.00;99.90
55083;DHT22;40978;52.850;6.506;2022-12-18T05:06:30;-6.00;99.90
55083;DHT22;40978;52.850;6.506;2022-12-18T05:08:56;-6.00;99.90
55083;DHT22;40978;52.850;6.506;2022-12-18T05:11:22;-6.10;99.90
55083;DHT22;40978;52.850;6.506;2022-12-18T05:13:47;-6.10;99.90
55083;DHT22;40978;52.850;6.506;2022-12-18T05:16:14;-6.10;99.90
55083;DHT22;40978;52.850;6.506;2022-12-18T05:18:39;-6.10;99.90
55083;DHT22;40978;52.850;6.506;2022-12-18T05:21:05;-6.10;99.90
55083;DHT22;40978;52.850;6.506;2022-12-18T05:23:34;-6.10;99.90
55083;DHT22;40978;52.850;6.506;2022-12-18T05:26:02;-6.10;99.90
55083;DHT22;40978;52.850;6.506;2022-12-18T05:28:29;-6.20;99.90
55083;DHT22;40978;52.850;6.506;2022-12-18T05:30:58;-6.20;99.90
55083;DHT22;40978;52.850;6.506;2022-12-18T05:33:27;-6.20;99.90
55083;DHT22;40978;52.850;6.506;2022-12-18T05:35:56;-6.30;99.90
55083;DHT22;40978;52.850;6.506;2022-12-18T05:38:22;-6.30;99.90
55083;DHT22;40978;52.850;6.506;2022-12-18T05:40:49;-6.30;99.90
55083;DHT22;40978;52.850;6.506;2022-12-18T05:43:15;-6.30;99.90
55083;DHT22;40978;52.850;6.506;2022-12-18T05:45:41;-6.30;99.90
55083;DHT22;40978;52.850;6.506;2022-12-18T05:48:08;-6.30;99.90
55083;DHT22;40978;52.850;6.506;2022-12-18T05:50:38;-6.30;99.90
55083;DHT22;40978;52.850;6.506;2022-12-18T05:53:04;-6.30;99.90
55083;DHT22;40978;52.850;6.506;2022-12-18T05:55:38;-6.30;99.90
55083;DHT22;40978;52.850;6.506;2022-12-18T05:58:05;-6.30;99.90
55083;DHT22;40978;52.850;6.506;2022-12-18T06:00:33;-6.30;99.90
55083;DHT22;40978;52.850;6.506;2022-12-18T06:03:00;-6.30;99.90
55083;DHT22;40978;52.850;6.506;2022-12-18T06:05:26;-6.30;99.90
55083;DHT22;40978;52.850;6.506;2022-12-18T06:07:52;-6.30;99.90
55083;DHT22;40978;52.850;6.506;2022-12-18T06:10:17;-6.40;99.90
55083;DHT22;40978;52.850;6.506;2022-12-18T06:12:43;-6.40;99.90
55083;DHT22;40978;52.850;6.506;2022-12-18T06:15:09;-6.40;99.90
55083;DHT22;40978;52.850;6.506;2022-12-18T06:17:35;-6.50;99.90
55083;DHT22;40978;52.850;6.506;2022-12-18T06:20:01;-6.40;99.90
55083;DHT22;40978;52.850;6.506;2022-12-18T06:22:27;-6.40;99.90
55083;DHT22;40978;52.850;6.506;2022-12-18T06:24:53;-6.40;99.90
55083;DHT22;40978;52.850;6.506;2022-12-18T06:27:19;-6.50;99.90
55083;DHT22;40978;52.850;6.506;2022-12-18T06:29:44;-6.50;99.90
55083;DHT22;40978;52.850;6.506;2022-12-18T06:32:11;-6.50;99.90
55083;DHT22;40978;52.850;6.506;2022-12-18T06:34:40;-6.50;99.90
55083;DHT22;40978;52.850;6.506;2022-12-18T06:37:06;-6.50;99.90
55083;DHT22;40978;52.850;6.506;2022-12-18T06:39:31;-6.50;99.90
55083;DHT22;40978;52.850;6.506;2022-12-18T06:41:57;-6.50;99.90
55083;DHT22;40978;52.850;6.506;2022-12-18T06:44:23;-6.50;99.90
55083;DHT22;40978;52.850;6.506;2022-12-18T06:46:48;-6.50;99.90
55083;DHT22;40978;52.850;6.506;2022-12-18T06:49:14;-6.50;99.90
55083;DHT22;40978;52.850;6.506;2022-12-18T06:51:41;-6.50;99.90
55083;DHT22;40978;52.850;6.506;2022-12-18T06:54:07;-6.50;99.90
55083;DHT22;40978;52.850;6.506;2022-12-18T06:56:32;-6.50;99.90
55083;DHT22;40978;52.850;6.506;2022-12-18T06:58:58;-6.50;99.90
55083;DHT22;40978;52.850;6.506;2022-12-18T07:01:24;-6.50;99.90
55083;DHT22;40978;52.850;6.506;2022-12-18T07:03:54;-6.50;99.90
55083;DHT22;40978;52.850;6.506;2022-12-18T07:06:21;-6.50;99.90
55083;DHT22;40978;52.850;6.506;2022-12-18T07:08:48;-6.50;99.90
55083;DHT22;40978;52.850;6.506;2022-12-18T07:11:15;-6.50;99.90
55083;DHT22;40978;52.850;6.506;2022-12-18T07:13:41;-6.60;99.90
55083;DHT22;40978;52.850;6.506;2022-12-18T07:16:15;-6.50;99.90
55083;DHT22;40978;52.850;6.506;2022-12-18T07:18:42;-6.60;99.90
55083;DHT22;40978;52.850;6.506;2022-12-18T07:21:09;-6.60;99.90
55083;DHT22;40978;52.850;6.506;2022-12-18T07:23:35;-6.50;99.90
55083;DHT22;40978;52.850;6.506;2022-12-18T07:26:06;-6.50;99.90
55083;DHT22;40978;52.850;6.506;2022-12-18T07:28:33;-6.50;99.90
55083;DHT22;40978;52.850;6.506;2022-12-18T07:31:04;-6.60;99.90
55083;DHT22;40978;52.850;6.506;2022-12-18T07:33:30;-6.60;99.90
55083;DHT22;40978;52.850;6.506;2022-12-18T07:35:55;-6.60;99.90
55083;DHT22;40978;52.850;6.506;2022-12-18T07:38:21;-6.60;99.90
55083;DHT22;40978;52.850;6.506;2022-12-18T07:40:47;-6.70;99.90
55083;DHT22;40978;52.850;6.506;2022-12-18T07:43:13;-6.60;99.90
55083;DHT22;40978;52.850;6.506;2022-12-18T07:45:38;-6.70;99.90
55083;DHT22;40978;52.850;6.506;2022-12-18T07:48:04;-6.60;99.90
55083;DHT22;40978;52.850;6.506;2022-12-18T07:50:30;-6.60;99.90
55083;DHT22;40978;52.850;6.506;2022-12-18T07:52:56;-6.70;99.90
55083;DHT22;40978;52.850;6.506;2022-12-18T07:55:24;-6.60;99.90
55083;DHT22;40978;52.850;6.506;2022-12-18T07:57:50;-6.60;99.90
55083;DHT22;40978;52.850;6.506;2022-12-18T08:00:16;-6.60;99.90
55083;DHT22;40978;52.850;6.506;2022-12-18T08:02:41;-6.60;99.90
55083;DHT22;40978;52.850;6.506;2022-12-18T08:05:08;-6.50;99.90
55083;DHT22;40978;52.850;6.506;2022-12-18T08:07:33;-6.50;99.90
55083;DHT22;40978;52.850;6.506;2022-12-18T08:09:59;-6.50;99.90
55083;DHT22;40978;52.850;6.506;2022-12-18T08:12:25;-6.50;99.90
55083;DHT22;40978;52.850;6.506;2022-12-18T08:14:50;-6.40;99.90
55083;DHT22;40978;52.850;6.506;2022-12-18T08:17:16;-6.40;99.90
55083;DHT22;40978;52.850;6.506;2022-12-18T08:19:42;-6.30;99.90
55083;DHT22;40978;52.850;6.506;2022-12-18T08:22:07;-6.30;99.90
55083;DHT22;40978;52.850;6.506;2022-12-18T08:24:33;-6.30;99.90
55083;DHT22;40978;52.850;6.506;2022-12-18T08:26:59;-6.20;99.90
55083;DHT22;40978;52.850;6.506;2022-12-18T08:29:25;-6.20;99.90
55083;DHT22;40978;52.850;6.506;2022-12-18T08:31:50;-6.20;99.90
55083;DHT22;40978;52.850;6.506;2022-12-18T08:34:16;-6.10;99.90
55083;DHT22;40978;52.850;6.506;2022-12-18T08:36:42;-6.00;99.90
55083;DHT22;40978;52.850;6.506;2022-12-18T08:39:08;-6.00;99.90
55083;DHT22;40978;52.850;6.506;2022-12-18T08:41:33;-6.00;99.90
55083;DHT22;40978;52.850;6.506;2022-12-18T08:43:59;-5.90;99.90
55083;DHT22;40978;52.850;6.506;2022-12-18T08:46:43;-5.90;99.90
55083;DHT22;40978;52.850;6.506;2022-12-18T08:49:11;-5.80;99.90
55083;DHT22;40978;52.850;6.506;2022-12-18T08:51:37;-5.70;99.90
55083;DHT22;40978;52.850;6.506;2022-12-18T08:54:04;-5.70;99.90
55083;DHT22;40978;52.850;6.506;2022-12-18T08:56:30;-5.60;99.90
55083;DHT22;40978;52.850;6.506;2022-12-18T08:58:56;-5.50;99.90
55083;DHT22;40978;52.850;6.506;2022-12-18T09:01:22;-5.40;99.90
55083;DHT22;40978;52.850;6.506;2022-12-18T09:03:49;-5.30;99.90
55083;DHT22;40978;52.850;6.506;2022-12-18T09:06:17;-5.20;99.90
55083;DHT22;40978;52.850;6.506;2022-12-18T09:08:44;-5.10;99.90
55083;DHT22;40978;52.850;6.506;2022-12-18T09:11:15;-5.00;99.90
55083;DHT22;40978;52.850;6.506;2022-12-18T09:13:44;-4.90;99.90
55083;DHT22;40978;52.850;6.506;2022-12-18T09:16:10;-4.80;99.90
55083;DHT22;40978;52.850;6.506;2022-12-18T09:18:35;-4.70;99.90
55083;DHT22;40978;52.850;6.506;2022-12-18T09:21:08;-4.60;99.90
55083;DHT22;40978;52.850;6.506;2022-12-18T09:23:34;-4.60;99.90
55083;DHT22;40978;52.850;6.506;2022-12-18T09:26:00;-4.50;99.90
55083;DHT22;40978;52.850;6.506;2022-12-18T09:28:26;-4.40;99.90
55083;DHT22;40978;52.850;6.506;2022-12-18T09:30:52;-4.30;99.90
55083;DHT22;40978;52.850;6.506;2022-12-18T09:33:18;-4.20;99.90
55083;DHT22;40978;52.850;6.506;2022-12-18T09:35:45;-4.20;99.90
55083;DHT22;40978;52.850;6.506;2022-12-18T09:38:15;-4.00;99.90
55083;DHT22;40978;52.850;6.506;2022-12-18T09:40:48;-4.00;99.90
55083;DHT22;40978;52.850;6.506;2022-12-18T09:43:26;-3.90;99.90
55083;DHT22;40978;52.850;6.506;2022-12-18T09:45:58;-3.80;99.90
55083;DHT22;40978;52.850;6.506;2022-12-18T09:48:36;-3.70;99.90
55083;DHT22;40978;52.850;6.506;2022-12-18T09:51:32;-3.60;99.90
55083;DHT22;40978;52.850;6.506;2022-12-18T09:54:03;-3.50;99.90
55083;DHT22;40978;52.850;6.506;2022-12-18T09:56:41;-3.40;99.90
55083;DHT22;40978;52.850;6.506;2022-12-18T10:01:45;-3.20;99.90
55083;DHT22;40978;52.850;6.506;2022-12-18T10:04:11;-3.10;99.90
55083;DHT22;40978;52.850;6.506;2022-12-18T10:17:56;-2.90;99.90
55083;DHT22;40978;52.850;6.506;2022-12-18T10:26:06;-2.90;99.90
55083;DHT22;40978;52.850;6.506;2022-12-18T10:28:35;-2.80;99.90
55083;DHT22;40978;52.850;6.506;2022-12-18T10:31:01;-2.80;99.90
55083;DHT22;40978;52.850;6.506;2022-12-18T10:33:29;-2.80;99.90
55083;DHT22;40978;52.850;6.506;2022-12-18T10:35:55;-2.80;99.90
55083;DHT22;40978;52.850;6.506;2022-12-18T10:38:24;-2.70;99.90
55083;DHT22;40978;52.850;6.506;2022-12-18T10:41:05;-2.70;99.90
55083;DHT22;40978;52.850;6.506;2022-12-18T10:43:33;-2.60;99.90
55083;DHT22;40978;52.850;6.506;2022-12-18T10:48:30;-2.50;99.90
55083;DHT22;40978;52.850;6.506;2022-12-18T10:50:56;-2.50;99.90
55083;DHT22;40978;52.850;6.506;2022-12-18T10:53:26;-2.50;99.90
55083;DHT22;40978;52.850;6.506;2022-12-18T10:55:54;-2.50;99.90
55083;DHT22;40978;52.850;6.506;2022-12-18T10:58:35;-2.50;99.90
55083;DHT22;40978;52.850;6.506;2022-12-18T11:01:17;-2.40;99.90
55083;DHT22;40978;52.850;6.506;2022-12-18T11:06:23;-2.30;99.90
55083;DHT22;40978;52.850;6.506;2022-12-18T11:09:18;-2.30;99.90
55083;DHT22;40978;52.850;6.506;2022-12-18T11:11:53;-2.30;99.90
55083;DHT22;40978;52.850;6.506;2022-12-18T11:14:27;-2.20;99.90
55083;DHT22;40978;52.850;6.506;2022-12-18T11:16:54;-2.20;99.90
55083;DHT22;40978;52.850;6.506;2022-12-18T11:19:35;-2.20;99.90
55083;DHT22;40978;52.850;6.506;2022-12-18T11:22:19;-2.10;99.90
55083;DHT22;40978;52.850;6.506;2022-12-18T11:25:02;-2.10;99.90
55083;DHT22;40978;52.850;6.506;2022-12-18T11:27:29;-2.00;99.90
55083;DHT22;40978;52.850;6.506;2022-12-18T11:32:43;-1.90;99.90
55083;DHT22;40978;52.850;6.506;2022-12-18T11:35:20;-1.90;99.90
55083;DHT22;40978;52.850;6.506;2022-12-18T11:37:53;-1.80;99.90
55083;DHT22;40978;52.850;6.506;2022-12-18T11:40:30;-1.80;99.90
55083;DHT22;40978;52.850;6.506;2022-12-18T11:43:04;-1.70;99.90
55083;DHT22;40978;52.850;6.506;2022-12-18T11:45:34;-1.70;99.90
55083;DHT22;40978;52.850;6.506;2022-12-18T11:50:54;-1.60;99.90
55083;DHT22;40978;52.850;6.506;2022-12-18T11:53:21;-1.50;99.90
55083;DHT22;40978;52.850;6.506;2022-12-18T11:58:51;-1.50;99.90
55083;DHT22;40978;52.850;6.506;2022-12-18T12:07:14;-1.40;99.90
55083;DHT22;40978;52.850;6.506;2022-12-18T12:12:58;-1.40;99.90
55083;DHT22;40978;52.850;6.506;2022-12-18T12:18:22;-1.30;99.90
55083;DHT22;40978;52.850;6.506;2022-12-18T12:23:41;-1.30;99.90
55083;DHT22;40978;52.850;6.506;2022-12-18T12:34:38;-1.20;99.90
55083;DHT22;40978;52.850;6.506;2022-12-18T12:40:14;-1.20;99.90
55083;DHT22;40978;52.850;6.506;2022-12-18T12:42:47;-1.10;99.90
55083;DHT22;40978;52.850;6.506;2022-12-18T12:46:04;-1.10;99.90
55083;DHT22;40978;52.850;6.506;2022-12-18T12:51:11;-0.90;99.90
55083;DHT22;40978;52.850;6.506;2022-12-18T12:53:38;-0.90;99.90
55083;DHT22;40978;52.850;6.506;2022-12-18T12:56:05;-0.90;99.90
55083;DHT22;40978;52.850;6.506;2022-12-18T13:01:24;-0.80;99.90
55083;DHT22;40978;52.850;6.506;2022-12-18T13:09:36;-0.70;99.90
55083;DHT22;40978;52.850;6.506;2022-12-18T13:12:27;-0.80;99.90
55083;DHT22;40978;52.850;6.506;2022-12-18T13:15:44;-0.70;99.90
55083;DHT22;40978;52.850;6.506;2022-12-18T13:18:25;-0.70;99.90
55083;DHT22;40978;52.850;6.506;2022-12-18T13:21:04;-0.60;99.90
55083;DHT22;40978;52.850;6.506;2022-12-18T13:23:37;-0.60;99.90
55083;DHT22;40978;52.850;6.506;2022-12-18T13:31:00;-0.60;99.90
55083;DHT22;40978;52.850;6.506;2022-12-18T13:36:48;-0.60;99.90
55083;DHT22;40978;52.850;6.506;2022-12-18T13:39:20;-0.60;99.90
55083;DHT22;40978;52.850;6.506;2022-12-18T13:42:31;-0.60;99.90
55083;DHT22;40978;52.850;6.506;2022-12-18T13:44:59;-0.60;99.90
55083;DHT22;40978;52.850;6.506;2022-12-18T13:47:36;-0.60;99.90
55083;DHT22;40978;52.850;6.506;2022-12-18T13:50:23;-0.50;99.90
55083;DHT22;40978;52.850;6.506;2022-12-18T13:52:50;-0.50;99.90
55083;DHT22;40978;52.850;6.506;2022-12-18T13:55:19;-0.50;99.90
55083;DHT22;40978;52.850;6.506;2022-12-18T13:57:45;-0.50;99.90
55083;DHT22;40978;52.850;6.506;2022-12-18T14:02:49;-0.50;99.90
55083;DHT22;40978;52.850;6.506;2022-12-18T14:05:36;-0.50;99.90
55083;DHT22;40978;52.850;6.506;2022-12-18T14:08:09;-0.50;99.90
55083;DHT22;40978;52.850;6.506;2022-12-18T14:10:43;-0.50;99.90
55083;DHT22;40978;52.850;6.506;2022-12-18T14:13:14;-0.60;99.90
55083;DHT22;40978;52.850;6.506;2022-12-18T14:15:46;-0.60;99.90
55083;DHT22;40978;52.850;6.506;2022-12-18T14:18:20;-0.50;99.90
55083;DHT22;40978;52.850;6.506;2022-12-18T14:20:48;-0.60;99.90
55083;DHT22;40978;52.850;6.506;2022-12-18T14:28:45;-0.60;99.90
55083;DHT22;40978;52.850;6.506;2022-12-18T14:31:22;-0.70;99.90
55083;DHT22;40978;52.850;6.506;2022-12-18T14:33:48;-0.70;99.90
55083;DHT22;40978;52.850;6.506;2022-12-18T14:36:19;-0.70;99.90
55083;DHT22;40978;52.850;6.506;2022-12-18T14:38:50;-0.70;99.90
55083;DHT22;40978;52.850;6.506;2022-12-18T14:41:17;-0.70;99.90
55083;DHT22;40978;52.850;6.506;2022-12-18T14:43:46;-0.80;99.90
55083;DHT22;40978;52.850;6.506;2022-12-18T14:48:59;-0.80;99.90
55083;DHT22;40978;52.850;6.506;2022-12-18T14:51:27;-0.80;99.90
55083;DHT22;40978;52.850;6.506;2022-12-18T14:56:29;-0.80;99.90
55083;DHT22;40978;52.850;6.506;2022-12-18T14:59:01;-0.80;99.90
55083;DHT22;40978;52.850;6.506;2022-12-18T15:02:15;-0.90;99.90
55083;DHT22;40978;52.850;6.506;2022-12-18T15:09:35;-0.90;99.90
55083;DHT22;40978;52.850;6.506;2022-12-18T15:12:01;-0.90;99.90
55083;DHT22;40978;52.850;6.506;2022-12-18T15:14:31;-0.90;99.90
55083;DHT22;40978;52.850;6.506;2022-12-18T15:16:59;-1.00;99.90
55083;DHT22;40978;52.850;6.506;2022-12-18T15:19:51;-1.00;99.90
55083;DHT22;40978;52.850;6.506;2022-12-18T15:22:20;-1.00;99.90
55083;DHT22;40978;52.850;6.506;2022-12-18T15:24:47;-1.00;99.90
55083;DHT22;40978;52.850;6.506;2022-12-18T15:27:40;-1.00;99.90
55083;DHT22;40978;52.850;6.506;2022-12-18T15:30:23;-1.00;99.90
55083;DHT22;40978;52.850;6.506;2022-12-18T15:32:50;-1.00;99.90
55083;DHT22;40978;52.850;6.506;2022-12-18T15:35:21;-1.10;99.90
55083;DHT22;40978;52.850;6.506;2022-12-18T15:37:47;-1.00;99.90
55083;DHT22;40978;52.850;6.506;2022-12-18T15:40:15;-1.10;99.90
55083;DHT22;40978;52.850;6.506;2022-12-18T15:42:42;-1.10;99.90
55083;DHT22;40978;52.850;6.506;2022-12-18T15:45:27;-1.10;99.90
55083;DHT22;40978;52.850;6.506;2022-12-18T15:47:53;-1.10;99.90
55083;DHT22;40978;52.850;6.506;2022-12-18T15:50:18;-1.10;99.90
55083;DHT22;40978;52.850;6.506;2022-12-18T15:52:46;-1.10;99.90
55083;DHT22;40978;52.850;6.506;2022-12-18T15:55:23;-1.10;99.90
55083;DHT22;40978;52.850;6.506;2022-12-18T15:58:09;-1.10;99.90
55083;DHT22;40978;52.850;6.506;2022-12-18T16:00:37;-1.20;99.90
55083;DHT22;40978;52.850;6.506;2022-12-18T16:03:04;-1.10;99.90
55083;DHT22;40978;52.850;6.506;2022-12-18T16:05:30;-1.10;99.90
55083;DHT22;40978;52.850;6.506;2022-12-18T16:07:56;-1.10;99.90
55083;DHT22;40978;52.850;6.506;2022-12-18T16:10:22;-1.10;99.90
55083;DHT22;40978;52.850;6.506;2022-12-18T16:12:49;-1.00;99.90
55083;DHT22;40978;52.850;6.506;2022-12-18T16:15:15;-1.10;99.90
55083;DHT22;40978;52.850;6.506;2022-12-18T16:17:43;-1.10;99.90
55083;DHT22;40978;52.850;6.506;2022-12-18T16:20:13;-1.10;99.90
55083;DHT22;40978;52.850;6.506;2022-12-18T16:22:41;-1.10;99.90
55083;DHT22;40978;52.850;6.506;2022-12-18T16:27:42;-1.10;99.90
55083;DHT22;40978;52.850;6.506;2022-12-18T16:30:16;-1.20;99.90
55083;DHT22;40978;52.850;6.506;2022-12-18T16:32:42;-1.20;99.90
55083;DHT22;40978;52.850;6.506;2022-12-18T16:35:12;-1.20;99.90
55083;DHT22;40978;52.850;6.506;2022-12-18T16:37:40;-1.10;99.90
55083;DHT22;40978;52.850;6.506;2022-12-18T16:40:08;-1.10;99.90
55083;DHT22;40978;52.850;6.506;2022-12-18T16:42:36;-1.10;99.90
55083;DHT22;40978;52.850;6.506;2022-12-18T16:45:03;-1.10;99.90
55083;DHT22;40978;52.850;6.506;2022-12-18T16:47:29;-1.10;99.90
55083;DHT22;40978;52.850;6.506;2022-12-18T16:49:55;-1.10;99.90
55083;DHT22;40978;52.850;6.506;2022-12-18T16:52:21;-1.00;99.90
55083;DHT22;40978;52.850;6.506;2022-12-18T16:54:47;-1.10;99.90
55083;DHT22;40978;52.850;6.506;2022-12-18T16:57:15;-1.10;99.90
55083;DHT22;40978;52.850;6.506;2022-12-18T16:59:42;-1.00;99.90
55083;DHT22;40978;52.850;6.506;2022-12-18T17:02:18;-1.00;99.90
55083;DHT22;40978;52.850;6.506;2022-12-18T17:04:44;-1.00;99.90
55083;DHT22;40978;52.850;6.506;2022-12-18T17:07:10;-1.00;99.90
55083;DHT22;40978;52.850;6.506;2022-12-18T17:09:37;-1.00;99.90
55083;DHT22;40978;52.850;6.506;2022-12-18T17:12:03;-1.00;99.90
55083;DHT22;40978;52.850;6.506;2022-12-18T17:14:29;-1.00;99.90
55083;DHT22;40978;52.850;6.506;2022-12-18T17:16:55;-1.00;99.90
55083;DHT22;40978;52.850;6.506;2022-12-18T17:19:25;-1.00;99.90
55083;DHT22;40978;52.850;6.506;2022-12-18T17:21:52;-1.00;99.90
55083;DHT22;40978;52.850;6.506;2022-12-18T17:24:18;-0.90;99.90
55083;DHT22;40978;52.850;6.506;2022-12-18T17:26:44;-0.90;99.90
55083;DHT22;40978;52.850;6.506;2022-12-18T17:29:15;-0.90;99.90
55083;DHT22;40978;52.850;6.506;2022-12-18T17:31:42;-1.00;99.90
55083;DHT22;40978;52.850;6.506;2022-12-18T17:34:10;-0.90;99.90
55083;DHT22;40978;52.850;6.506;2022-12-18T17:36:36;-1.00;99.90
55083;DHT22;40978;52.850;6.506;2022-12-18T17:39:03;-0.90;99.90
55083;DHT22;40978;52.850;6.506;2022-12-18T17:41:29;-0.90;99.90
55083;DHT22;40978;52.850;6.506;2022-12-18T17:44:04;-0.90;99.90
55083;DHT22;40978;52.850;6.506;2022-12-18T17:46:31;-0.90;99.90